sensor_id;sensor_type;location;lat;lon;timestamp;pressure;altitude;pressure_sealevel;temperature;humidity
77323;BME280;66384;51.052;9.850;2023-08-07T00:01:13;97828.95;;;13.96;76.90
77323;BME280;66384;51.052;9.850;2023-08-07T00:03:45;97824.45;;;13.95;76.88
77323;BME280;66384;51.052;9.850;2023-08-07T00:06:17;97829.27;;;13.95;76.90
77323;BME280;66384;51.052;9.850;2023-08-07T00:08:49;97827.40;;;13.93;76.96
77323;BME280;66384;51.052;9.850;2023-08-07T00:11:21;97829.13;;;13.91;76.92
77323;BME280;66384;51.052;9.850;2023-08-07T00:13:53;97830.67;;;13.90;77.12
77323;BME280;66384;51.052;9.850;2023-08-07T00:16:24;97834.31;;;13.89;77.16
77323;BME280;66384;51.052;9.850;2023-08-07T00:18:56;97838.98;;;13.86;77.20
77323;BME280;66384;51.052;9.850;2023-08-07T00:21:28;97839.32;;;13.83;77.27
77323;BME280;66384;51.052;9.850;2023-08-07T00:23:59;97836.21;;;13.81;77.31
77323;BME280;66384;51.052;9.850;2023-08-07T00:26:31;97840.02;;;13.79;77.53
77323;BME280;66384;51.052;9.850;2023-08-07T00:29:03;97839.17;;;13.76;77.39
77323;BME280;66384;51.052;9.850;2023-08-07T00:31:35;97841.41;;;13.74;77.57
77323;BME280;66384;51.052;9.850;2023-08-07T00:34:07;97833.29;;;13.71;77.62
77323;BME280;66384;51.052;9.850;2023-08-07T00:36:39;97832.41;;;13.68;77.53
77323;BME280;66384;51.052;9.850;2023-08-07T00:39:11;97832.23;;;13.64;77.58
77323;BME280;66384;51.052;9.850;2023-08-07T00:41:42;97835.86;;;13.63;77.63
77323;BME280;66384;51.052;9.850;2023-08-07T00:44:14;97842.95;;;13.62;77.69
77323;BME280;66384;51.052;9.850;2023-08-07T00:46:45;97842.09;;;13.63;77.70
77323;BME280;66384;51.052;9.850;2023-08-07T00:49:18;97844.51;;;13.63;77.54
77323;BME280;66384;51.052;9.850;2023-08-07T00:51:50;97843.65;;;13.63;77.44
77323;BME280;66384;51.052;9.850;2023-08-07T00:54:22;97848.15;;;13.64;77.54
77323;BME280;66384;51.052;9.850;2023-08-07T00:56:54;97851.08;;;13.63;77.39
77323;BME280;66384;51.052;9.850;2023-08-07T00:59:26;97848.48;;;13.63;77.38
77323;BME280;66384;51.052;9.850;2023-08-07T01:01:58;97846.59;;;13.63;77.30
77323;BME280;66384;51.052;9.850;2023-08-07T01:04:29;97850.39;;;13.63;77.19
77323;BME280;66384;51.052;9.850;2023-08-07T01:07:02;97850.89;;;13.63;77.09
77323;BME280;66384;51.052;9.850;2023-08-07T01:09:34;97851.60;;;13.64;77.15
77323;BME280;66384;51.052;9.850;2023-08-07T01:12:13;97847.45;;;13.65;77.14
77323;BME280;66384;51.052;9.850;2023-08-07T01:14:52;97847.80;;;13.68;76.99
77323;BME280;66384;51.052;9.850;2023-08-07T01:17:26;97850.91;;;13.69;76.79
77323;BME280;66384;51.052;9.850;2023-08-07T01:19:59;97851.43;;;13.68;76.78
77323;BME280;66384;51.052;9.850;2023-08-07T01:22:31;97854.02;;;13.68;76.83
77323;BME280;66384;51.052;9.850;2023-08-07T01:25:04;97853.85;;;13.68;76.88
77323;BME280;66384;51.052;9.850;2023-08-07T01:27:40;97853.68;;;13.68;76.94
77323;BME280;66384;51.052;9.850;2023-08-07T01:30:19;97850.73;;;13.66;76.80
77323;BME280;66384;51.052;9.850;2023-08-07T01:33:03;97847.63;;;13.63;76.78
77323;BME280;66384;51.052;9.850;2023-08-07T01:35:39;97850.04;;;13.62;76.96
77323;BME280;66384;51.052;9.850;2023-08-07T01:38:12;97842.96;;;13.61;76.94
77323;BME280;66384;51.052;9.850;2023-08-07T01:40:45;97840.70;;;13.60;77.02
77323;BME280;66384;51.052;9.850;2023-08-07T01:43:18;97841.91;;;13.60;77.13
77323;BME280;66384;51.052;9.850;2023-08-07T01:45:49;97847.28;;;13.59;76.99
77323;BME280;66384;51.052;9.850;2023-08-07T01:48:21;97856.08;;;13.59;77.14
77323;BME280;66384;51.052;9.850;2023-08-07T01:50:56;97858.34;;;13.57;77.15
77323;BME280;66384;51.052;9.850;2023-08-07T01:53:27;97864.71;;;13.57;77.16
77323;BME280;66384;51.052;9.850;2023-08-07T01:55:59;97869.57;;;13.55;77.37
77323;BME280;66384;51.052;9.850;2023-08-07T01:58:30;97867.65;;;13.54;77.36
77323;BME280;66384;51.052;9.850;2023-08-07T02:01:02;97868.87;;;13.55;77.56
77323;BME280;66384;51.052;9.850;2023-08-07T02:03:33;97869.56;;;13.56;77.62
77323;BME280;66384;51.052;9.850;2023-08-07T02:06:05;97868.52;;;13.56;77.72
77323;BME280;66384;51.052;9.850;2023-08-07T02:08:36;97869.90;;;13.57;77.70
77323;BME280;66384;51.052;9.850;2023-08-07T02:11:08;97871.11;;;13.56;77.68
77323;BME280;66384;51.052;9.850;2023-08-07T02:13:39;97870.79;;;13.55;77.74
77323;BME280;66384;51.052;9.850;2023-08-07T02:16:11;97868.69;;;13.54;77.80
77323;BME280;66384;51.052;9.850;2023-08-07T02:18:42;97865.41;;;13.53;77.78
77323;BME280;66384;51.052;9.850;2023-08-07T02:21:14;97864.73;;;13.52;77.75
77323;BME280;66384;51.052;9.850;2023-08-07T02:23:45;97864.20;;;13.51;77.77
77323;BME280;66384;51.052;9.850;2023-08-07T02:26:17;97865.58;;;13.48;77.77
77323;BME280;66384;51.052;9.850;2023-08-07T02:28:48;97869.55;;;13.43;77.80
77323;BME280;66384;51.052;9.850;2023-08-07T02:31:20;97871.27;;;13.41;77.94
77323;BME280;66384;51.052;9.850;2023-08-07T02:33:52;97869.38;;;13.41;77.89
77323;BME280;66384;51.052;9.850;2023-08-07T02:36:23;97863.66;;;13.39;77.95
77323;BME280;66384;51.052;9.850;2023-08-07T02:38:55;97860.21;;;13.38;77.95
77323;BME280;66384;51.052;9.850;2023-08-07T02:41:26;97860.56;;;13.38;78.01
77323;BME280;66384;51.052;9.850;2023-08-07T02:43:58;97862.12;;;13.38;78.07
77323;BME280;66384;51.052;9.850;2023-08-07T02:46:30;97858.31;;;13.37;77.86
77323;BME280;66384;51.052;9.850;2023-08-07T02:49:01;97854.86;;;13.36;77.85
77323;BME280;66384;51.052;9.850;2023-08-07T02:51:34;97857.45;;;13.38;77.95
77323;BME280;66384;51.052;9.850;2023-08-07T02:54:06;97856.76;;;13.38;77.81
77323;BME280;66384;51.052;9.850;2023-08-07T02:56:37;97856.76;;;13.37;77.80
77323;BME280;66384;51.052;9.850;2023-08-07T02:59:09;97853.81;;;13.36;77.84
77323;BME280;66384;51.052;9.850;2023-08-07T03:01:40;97853.65;;;13.36;77.79
77323;BME280;66384;51.052;9.850;2023-08-07T03:04:12;97849.84;;;13.34;77.77
77323;BME280;66384;51.052;9.850;2023-08-07T03:06:44;97854.67;;;13.31;77.93
77323;BME280;66384;51.052;9.850;2023-08-07T03:09:15;97854.33;;;13.28;77.80
77323;BME280;66384;51.052;9.850;2023-08-07T03:11:47;97857.60;;;13.28;77.95
77323;BME280;66384;51.052;9.850;2023-08-07T03:14:18;97858.80;;;13.26;77.93
77323;BME280;66384;51.052;9.850;2023-08-07T03:16:50;97860.36;;;13.25;77.93
77323;BME280;66384;51.052;9.850;2023-08-07T03:19:21;97862.05;;;13.25;78.02
77323;BME280;66384;51.052;9.850;2023-08-07T03:21:53;97865.89;;;13.26;77.96
77323;BME280;66384;51.052;9.850;2023-08-07T03:24:24;97867.60;;;13.25;77.89
77323;BME280;66384;51.052;9.850;2023-08-07T03:26:56;97868.32;;;13.26;77.79
77323;BME280;66384;51.052;9.850;2023-08-07T03:29:28;97873.10;;;13.25;77.76
77323;BME280;66384;51.052;9.850;2023-08-07T03:31:59;97870.69;;;13.22;77.68
77323;BME280;66384;51.052;9.850;2023-08-07T03:34:30;97873.61;;;13.20;77.95
77323;BME280;66384;51.052;9.850;2023-08-07T03:37:02;97880.18;;;13.18;77.89
77323;BME280;66384;51.052;9.850;2023-08-07T03:39:34;97878.09;;;13.15;77.90
77323;BME280;66384;51.052;9.850;2023-08-07T03:42:06;97880.86;;;13.16;77.88
77323;BME280;66384;51.052;9.850;2023-08-07T03:44:38;97881.55;;;13.16;77.94
77323;BME280;66384;51.052;9.850;2023-08-07T03:47:10;97881.89;;;13.16;77.84
77323;BME280;66384;51.052;9.850;2023-08-07T03:49:41;97888.28;;;13.16;77.87
77323;BME280;66384;51.052;9.850;2023-08-07T03:52:13;97891.40;;;13.16;77.67
77323;BME280;66384;51.052;9.850;2023-08-07T03:54:45;97898.14;;;13.17;77.73
77323;BME280;66384;51.052;9.850;2023-08-07T03:57:16;97894.84;;;13.17;77.70
77323;BME280;66384;51.052;9.850;2023-08-07T03:59:48;97895.54;;;13.16;77.57
77323;BME280;66384;51.052;9.850;2023-08-07T04:02:20;97900.71;;;13.17;77.68
77323;BME280;66384;51.052;9.850;2023-08-07T04:04:52;97903.48;;;13.18;77.70
77323;BME280;66384;51.052;9.850;2023-08-07T04:07:23;97902.10;;;13.19;77.68
77323;BME280;66384;51.052;9.850;2023-08-07T04:09:55;97901.58;;;13.20;77.72
77323;BME280;66384;51.052;9.850;2023-08-07T04:12:26;97902.80;;;13.20;77.67
77323;BME280;66384;51.052;9.850;2023-08-07T04:14:58;97906.08;;;13.19;77.46
77323;BME280;66384;51.052;9.850;2023-08-07T04:17:29;97907.98;;;13.19;77.47
77323;BME280;66384;51.052;9.850;2023-08-07T04:20:01;97907.63;;;13.19;77.29
77323;BME280;66384;51.052;9.850;2023-08-07T04:22:33;97907.27;;;13.18;77.40
77323;BME280;66384;51.052;9.850;2023-08-07T04:25:06;97906.25;;;13.20;77.37
77323;BME280;66384;51.052;9.850;2023-08-07T04:27:38;97908.50;;;13.23;77.40
77323;BME280;66384;51.052;9.850;2023-08-07T04:30:11;97911.10;;;13.24;77.35
77323;BME280;66384;51.052;9.850;2023-08-07T04:32:43;97914.89;;;13.25;77.20
77323;BME280;66384;51.052;9.850;2023-08-07T04:35:15;97920.47;;;13.26;77.22
77323;BME280;66384;51.052;9.850;2023-08-07T04:37:46;97917.19;;;13.29;77.20
77323;BME280;66384;51.052;9.850;2023-08-07T04:40:18;97922.37;;;13.30;77.09
77323;BME280;66384;51.052;9.850;2023-08-07T04:42:51;97923.75;;;13.29;76.98
77323;BME280;66384;51.052;9.850;2023-08-07T04:45:22;97923.23;;;13.30;77.04
77323;BME280;66384;51.052;9.850;2023-08-07T04:47:54;97925.48;;;13.32;76.98
77323;BME280;66384;51.052;9.850;2023-08-07T04:50:26;97929.09;;;13.31;76.89
77323;BME280;66384;51.052;9.850;2023-08-07T04:52:58;97930.48;;;13.30;76.99
77323;BME280;66384;51.052;9.850;2023-08-07T04:55:29;97937.40;;;13.29;76.91
77323;BME280;66384;51.052;9.850;2023-08-07T04:58:01;97944.30;;;13.31;77.07
77323;BME280;66384;51.052;9.850;2023-08-07T05:00:32;97936.00;;;13.30;76.88
77323;BME280;66384;51.052;9.850;2023-08-07T05:03:04;97938.44;;;13.30;76.79
77323;BME280;66384;51.052;9.850;2023-08-07T05:05:36;97942.23;;;13.30;76.91
77323;BME280;66384;51.052;9.850;2023-08-07T05:08:08;97943.27;;;13.33;76.97
77323;BME280;66384;51.052;9.850;2023-08-07T05:10:39;97943.27;;;13.34;76.86
77323;BME280;66384;51.052;9.850;2023-08-07T05:13:11;97948.30;;;13.36;76.90
77323;BME280;66384;51.052;9.850;2023-08-07T05:15:42;97948.83;;;13.37;76.84
77323;BME280;66384;51.052;9.850;2023-08-07T05:18:13;97949.33;;;13.38;77.08
77323;BME280;66384;51.052;9.850;2023-08-07T05:20:45;97949.68;;;13.38;77.09
77323;BME280;66384;51.052;9.850;2023-08-07T05:23:17;97947.09;;;13.38;77.23
77323;BME280;66384;51.052;9.850;2023-08-07T05:25:49;97953.14;;;13.38;77.24
77323;BME280;66384;51.052;9.850;2023-08-07T05:28:20;97955.39;;;13.40;77.50
77323;BME280;66384;51.052;9.850;2023-08-07T05:30:52;97950.91;;;13.42;77.50
77323;BME280;66384;51.052;9.850;2023-08-07T05:33:23;97954.36;;;13.45;77.60
77323;BME280;66384;51.052;9.850;2023-08-07T05:35:55;97951.77;;;13.44;77.76
77323;BME280;66384;51.052;9.850;2023-08-07T05:38:27;97954.70;;;13.43;77.89
77323;BME280;66384;51.052;9.850;2023-08-07T05:40:58;97960.22;;;13.42;77.96
77323;BME280;66384;51.052;9.850;2023-08-07T05:43:30;97963.00;;;13.44;78.11
77323;BME280;66384;51.052;9.850;2023-08-07T05:46:01;97969.41;;;13.48;78.14
77323;BME280;66384;51.052;9.850;2023-08-07T05:48:33;97967.16;;;13.51;78.09
77323;BME280;66384;51.052;9.850;2023-08-07T05:51:04;97965.27;;;13.53;78.32
77323;BME280;66384;51.052;9.850;2023-08-07T05:53:37;97972.87;;;13.54;78.27
77323;BME280;66384;51.052;9.850;2023-08-07T05:56:08;97972.02;;;13.58;78.16
77323;BME280;66384;51.052;9.850;2023-08-07T05:58:40;97975.66;;;13.62;78.04
77323;BME280;66384;51.052;9.850;2023-08-07T06:01:12;97975.50;;;13.66;78.02
77323;BME280;66384;51.052;9.850;2023-08-07T06:03:45;97979.46;;;13.69;77.89
77323;BME280;66384;51.052;9.850;2023-08-07T06:06:17;97977.92;;;13.72;77.77
77323;BME280;66384;51.052;9.850;2023-08-07T06:08:49;97982.08;;;13.73;77.39
77323;BME280;66384;51.052;9.850;2023-08-07T06:11:21;97981.40;;;13.75;77.37
77323;BME280;66384;51.052;9.850;2023-08-07T06:13:52;97989.69;;;13.77;77.18
77323;BME280;66384;51.052;9.850;2023-08-07T06:16:23;97990.55;;;13.77;77.29
77323;BME280;66384;51.052;9.850;2023-08-07T06:18:55;97992.96;;;13.76;77.09
77323;BME280;66384;51.052;9.850;2023-08-07T06:21:27;97998.50;;;13.74;77.02
77323;BME280;66384;51.052;9.850;2023-08-07T06:23:59;97995.04;;;13.75;77.18
77323;BME280;66384;51.052;9.850;2023-08-07T06:26:31;97997.80;;;13.75;77.21
77323;BME280;66384;51.052;9.850;2023-08-07T06:29:02;98003.16;;;13.74;77.20
77323;BME280;66384;51.052;9.850;2023-08-07T06:31:34;98001.44;;;13.75;77.14
77323;BME280;66384;51.052;9.850;2023-08-07T06:34:06;98005.41;;;13.75;77.00
77323;BME280;66384;51.052;9.850;2023-08-07T06:36:37;98006.98;;;13.76;77.13
77323;BME280;66384;51.052;9.850;2023-08-07T06:39:09;98002.98;;;13.75;77.15
77323;BME280;66384;51.052;9.850;2023-08-07T06:41:41;98009.91;;;13.75;77.25
77323;BME280;66384;51.052;9.850;2023-08-07T06:44:12;98005.75;;;13.74;77.22
77323;BME280;66384;51.052;9.850;2023-08-07T06:46:43;98011.29;;;13.74;77.06
77323;BME280;66384;51.052;9.850;2023-08-07T06:49:15;98014.75;;;13.74;77.09
77323;BME280;66384;51.052;9.850;2023-08-07T06:51:47;98013.38;;;13.76;76.77
77323;BME280;66384;51.052;9.850;2023-08-07T06:54:18;98009.74;;;13.78;76.66
77323;BME280;66384;51.052;9.850;2023-08-07T06:56:49;98010.09;;;13.82;76.73
77323;BME280;66384;51.052;9.850;2023-08-07T06:59:21;98011.48;;;13.88;76.78
77323;BME280;66384;51.052;9.850;2023-08-07T07:01:54;98014.96;;;13.93;76.83
77323;BME280;66384;51.052;9.850;2023-08-07T07:04:26;98012.72;;;13.95;76.70
77323;BME280;66384;51.052;9.850;2023-08-07T07:06:58;98015.84;;;13.96;76.67
77323;BME280;66384;51.052;9.850;2023-08-07T07:09:30;98014.79;;;13.98;76.62
77323;BME280;66384;51.052;9.850;2023-08-07T07:12:02;98022.58;;;14.00;76.83
77323;BME280;66384;51.052;9.850;2023-08-07T07:14:35;98023.95;;;14.03;77.07
77323;BME280;66384;51.052;9.850;2023-08-07T07:17:06;98030.90;;;14.08;77.09
77323;BME280;66384;51.052;9.850;2023-08-07T07:19:38;98032.11;;;14.12;77.04
77323;BME280;66384;51.052;9.850;2023-08-07T07:22:09;98031.08;;;14.17;76.98
77323;BME280;66384;51.052;9.850;2023-08-07T07:24:40;98030.91;;;14.24;77.02
77323;BME280;66384;51.052;9.850;2023-08-07T07:27:12;98036.97;;;14.29;76.93
77323;BME280;66384;51.052;9.850;2023-08-07T07:29:43;98033.52;;;14.33;76.87
77323;BME280;66384;51.052;9.850;2023-08-07T07:32:15;98037.31;;;14.36;76.66
77323;BME280;66384;51.052;9.850;2023-08-07T07:34:46;98038.02;;;14.38;76.42
77323;BME280;66384;51.052;9.850;2023-08-07T07:37:18;98043.89;;;14.37;76.74
77323;BME280;66384;51.052;9.850;2023-08-07T07:39:50;98046.30;;;14.37;76.70
77323;BME280;66384;51.052;9.850;2023-08-07T07:42:22;98051.51;;;14.38;76.66
77323;BME280;66384;51.052;9.850;2023-08-07T07:44:53;98055.65;;;14.36;76.96
77323;BME280;66384;51.052;9.850;2023-08-07T07:47:25;98056.16;;;14.34;76.65
77323;BME280;66384;51.052;9.850;2023-08-07T07:50:07;98062.05;;;14.28;76.64
77323;BME280;66384;51.052;9.850;2023-08-07T07:52:39;98067.58;;;14.22;76.75
77323;BME280;66384;51.052;9.850;2023-08-07T07:55:11;98068.42;;;14.17;76.89
77323;BME280;66384;51.052;9.850;2023-08-07T07:57:44;98070.50;;;14.15;77.11
77323;BME280;66384;51.052;9.850;2023-08-07T08:00:17;98076.89;;;14.13;77.09
77323;BME280;66384;51.052;9.850;2023-08-07T08:02:49;98077.41;;;14.08;76.87
77323;BME280;66384;51.052;9.850;2023-08-07T08:05:21;98082.24;;;14.05;76.60
77323;BME280;66384;51.052;9.850;2023-08-07T08:07:53;98084.65;;;14.01;76.86
77323;BME280;66384;51.052;9.850;2023-08-07T08:10:24;98086.39;;;14.00;77.08
77323;BME280;66384;51.052;9.850;2023-08-07T08:12:57;98095.53;;;13.99;77.14
77323;BME280;66384;51.052;9.850;2023-08-07T08:15:29;98100.90;;;14.01;77.08
77323;BME280;66384;51.052;9.850;2023-08-07T08:18:00;98101.25;;;14.01;77.02
77323;BME280;66384;51.052;9.850;2023-08-07T08:20:32;98098.83;;;14.05;77.12
77323;BME280;66384;51.052;9.850;2023-08-07T08:23:03;98102.14;;;14.10;76.98
77323;BME280;66384;51.052;9.850;2023-08-07T08:25:35;98106.47;;;14.15;76.87
77323;BME280;66384;51.052;9.850;2023-08-07T08:28:07;98108.38;;;14.17;76.95
77323;BME280;66384;51.052;9.850;2023-08-07T08:30:38;98110.30;;;14.22;76.98
77323;BME280;66384;51.052;9.850;2023-08-07T08:33:10;98114.80;;;14.27;76.64
77323;BME280;66384;51.052;9.850;2023-08-07T08:35:42;98114.81;;;14.30;76.57
77323;BME280;66384;51.052;9.850;2023-08-07T08:38:14;98115.33;;;14.32;76.37
77323;BME280;66384;51.052;9.850;2023-08-07T08:40:52;98120.53;;;14.36;76.29
77323;BME280;66384;51.052;9.850;2023-08-07T08:43:24;98118.98;;;14.41;76.22
77323;BME280;66384;51.052;9.850;2023-08-07T08:45:56;98121.58;;;14.45;76.39
77323;BME280;66384;51.052;9.850;2023-08-07T08:48:29;98127.63;;;14.47;76.27
77323;BME280;66384;51.052;9.850;2023-08-07T08:51:03;98135.08;;;14.49;76.22
77323;BME280;66384;51.052;9.850;2023-08-07T08:53:35;98133.72;;;14.52;76.36
77323;BME280;66384;51.052;9.850;2023-08-07T08:56:07;98130.27;;;14.55;76.25
77323;BME280;66384;51.052;9.850;2023-08-07T08:58:40;98136.34;;;14.55;76.10
77323;BME280;66384;51.052;9.850;2023-08-07T09:01:12;98130.27;;;14.53;76.28
77323;BME280;66384;51.052;9.850;2023-08-07T09:03:45;98130.63;;;14.53;76.34
77323;BME280;66384;51.052;9.850;2023-08-07T09:06:17;98134.42;;;14.52;76.33
77323;BME280;66384;51.052;9.850;2023-08-07T09:08:49;98137.89;;;14.54;76.49
77323;BME280;66384;51.052;9.850;2023-08-07T09:11:21;98141.19;;;14.56;76.62
77323;BME280;66384;51.052;9.850;2023-08-07T09:13:54;98143.95;;;14.53;76.38
77323;BME280;66384;51.052;9.850;2023-08-07T09:16:28;98148.94;;;14.50;76.43
77323;BME280;66384;51.052;9.850;2023-08-07T09:19:01;98150.48;;;14.48;76.29
77323;BME280;66384;51.052;9.850;2023-08-07T09:21:35;98152.02;;;14.43;76.34
77323;BME280;66384;51.052;9.850;2023-08-07T09:24:07;98157.38;;;14.40;76.57
77323;BME280;66384;51.052;9.850;2023-08-07T09:26:40;98159.80;;;14.36;76.50
77323;BME280;66384;51.052;9.850;2023-08-07T09:29:14;98164.63;;;14.30;76.21
77323;BME280;66384;51.052;9.850;2023-08-07T09:31:46;98170.69;;;14.33;76.51
77323;BME280;66384;51.052;9.850;2023-08-07T09:34:20;98173.98;;;14.38;76.39
77323;BME280;66384;51.052;9.850;2023-08-07T09:36:53;98179.52;;;14.43;76.40
77323;BME280;66384;51.052;9.850;2023-08-07T09:39:26;98181.10;;;14.47;76.25
77323;BME280;66384;51.052;9.850;2023-08-07T09:42:00;98177.65;;;14.49;76.10
77323;BME280;66384;51.052;9.850;2023-08-07T09:44:37;98183.59;;;14.58;75.91
77323;BME280;66384;51.052;9.850;2023-08-07T09:47:16;98179.44;;;14.64;75.74
77323;BME280;66384;51.052;9.850;2023-08-07T09:49:49;98183.08;;;14.64;75.45
77323;BME280;66384;51.052;9.850;2023-08-07T09:52:25;98183.41;;;14.58;75.33
77323;BME280;66384;51.052;9.850;2023-08-07T09:54:58;98181.66;;;14.52;75.55
77323;BME280;66384;51.052;9.850;2023-08-07T09:57:31;98180.63;;;14.53;75.56
77323;BME280;66384;51.052;9.850;2023-08-07T10:00:05;98181.68;;;14.59;75.35
77323;BME280;66384;51.052;9.850;2023-08-07T10:02:41;98186.36;;;14.68;75.28
77323;BME280;66384;51.052;9.850;2023-08-07T10:05:14;98185.52;;;14.80;75.47
77323;BME280;66384;51.052;9.850;2023-08-07T10:07:47;98186.21;;;14.89;75.31
77323;BME280;66384;51.052;9.850;2023-08-07T10:10:19;98185.35;;;14.95;75.47
77323;BME280;66384;51.052;9.850;2023-08-07T10:12:51;98192.46;;;15.01;75.12
77323;BME280;66384;51.052;9.850;2023-08-07T10:15:23;98191.26;;;15.06;75.15
77323;BME280;66384;51.052;9.850;2023-08-07T10:17:55;98190.04;;;15.12;74.75
77323;BME280;66384;51.052;9.850;2023-08-07T10:20:28;98187.45;;;15.12;74.62
77323;BME280;66384;51.052;9.850;2023-08-07T10:23:03;98187.79;;;15.13;74.40
77323;BME280;66384;51.052;9.850;2023-08-07T10:25:37;98186.05;;;15.21;74.21
77323;BME280;66384;51.052;9.850;2023-08-07T10:28:13;98185.35;;;15.31;74.05
77323;BME280;66384;51.052;9.850;2023-08-07T10:30:48;98191.58;;;15.41;74.34
77323;BME280;66384;51.052;9.850;2023-08-07T10:33:20;98192.61;;;15.48;73.86
77323;BME280;66384;51.052;9.850;2023-08-07T10:35:53;98201.27;;;15.51;73.90
77323;BME280;66384;51.052;9.850;2023-08-07T10:38:25;98197.29;;;15.50;73.79
77323;BME280;66384;51.052;9.850;2023-08-07T10:41:05;98201.11;;;15.46;73.70
77323;BME280;66384;51.052;9.850;2023-08-07T10:43:42;98196.94;;;15.46;73.73
77323;BME280;66384;51.052;9.850;2023-08-07T10:46:17;98196.23;;;15.54;73.78
77323;BME280;66384;51.052;9.850;2023-08-07T10:48:56;98195.54;;;15.62;73.82
77323;BME280;66384;51.052;9.850;2023-08-07T10:51:30;98201.59;;;15.66;73.81
77323;BME280;66384;51.052;9.850;2023-08-07T10:54:02;98207.52;;;15.68;73.62
77323;BME280;66384;51.052;9.850;2023-08-07T10:56:35;98205.77;;;15.63;73.14
77323;BME280;66384;51.052;9.850;2023-08-07T10:59:12;98217.04;;;15.54;73.28
77323;BME280;66384;51.052;9.850;2023-08-07T11:01:43;98221.03;;;15.43;73.50
77323;BME280;66384;51.052;9.850;2023-08-07T11:04:23;98228.15;;;15.36;73.71
77323;BME280;66384;51.052;9.850;2023-08-07T11:06:56;98227.80;;;15.40;73.82
77323;BME280;66384;51.052;9.850;2023-08-07T11:09:28;98224.84;;;15.54;73.87
77323;BME280;66384;51.052;9.850;2023-08-07T11:12:00;98223.97;;;15.69;73.99
77323;BME280;66384;51.052;9.850;2023-08-07T11:14:31;98218.40;;;15.81;73.78
77323;BME280;66384;51.052;9.850;2023-08-07T11:17:04;98217.68;;;15.92;73.85
77323;BME280;66384;51.052;9.850;2023-08-07T11:19:36;98219.21;;;16.02;73.65
77323;BME280;66384;51.052;9.850;2023-08-07T11:22:08;98218.84;;;16.10;73.71
77323;BME280;66384;51.052;9.850;2023-08-07T11:24:40;98228.02;;;16.13;73.78
77323;BME280;66384;51.052;9.850;2023-08-07T11:27:11;98228.55;;;16.08;73.11
77323;BME280;66384;51.052;9.850;2023-08-07T11:29:44;98233.95;;;16.03;73.57
77323;BME280;66384;51.052;9.850;2023-08-07T11:32:16;98231.02;;;15.98;73.38
77323;BME280;66384;51.052;9.850;2023-08-07T11:34:50;98238.50;;;15.91;73.63
77323;BME280;66384;51.052;9.850;2023-08-07T11:37:22;98235.75;;;15.80;73.45
77323;BME280;66384;51.052;9.850;2023-08-07T11:39:58;98233.50;;;15.73;73.82
77323;BME280;66384;51.052;9.850;2023-08-07T11:42:30;98236.80;;;15.71;73.77
77323;BME280;66384;51.052;9.850;2023-08-07T11:45:03;98231.60;;;15.74;73.87
77323;BME280;66384;51.052;9.850;2023-08-07T11:47:34;98239.73;;;15.79;73.95
77323;BME280;66384;51.052;9.850;2023-08-07T11:50:09;98238.50;;;15.92;73.94
77323;BME280;66384;51.052;9.850;2023-08-07T11:52:40;98240.02;;;16.05;73.68
77323;BME280;66384;51.052;9.850;2023-08-07T11:55:15;98240.16;;;16.16;73.80
77323;BME280;66384;51.052;9.850;2023-08-07T11:57:48;98242.73;;;16.24;73.43
77323;BME280;66384;51.052;9.850;2023-08-07T12:00:19;98238.89;;;16.31;72.80
77323;BME280;66384;51.052;9.850;2023-08-07T12:02:51;98236.60;;;16.35;72.61
77323;BME280;66384;51.052;9.850;2023-08-07T12:05:23;98239.02;;;16.36;72.89
77323;BME280;66384;51.052;9.850;2023-08-07T12:07:55;98243.20;;;16.33;73.12
77323;BME280;66384;51.052;9.850;2023-08-07T12:10:28;98242.88;;;16.29;73.63
77323;BME280;66384;51.052;9.850;2023-08-07T12:13:01;98250.16;;;16.31;73.38
77323;BME280;66384;51.052;9.850;2023-08-07T12:15:35;98248.41;;;16.35;73.16
77323;BME280;66384;51.052;9.850;2023-08-07T12:18:09;98246.64;;;16.45;72.81
77323;BME280;66384;51.052;9.850;2023-08-07T12:20:43;98245.19;;;16.56;72.82
77323;BME280;66384;51.052;9.850;2023-08-07T12:23:17;98250.31;;;16.71;72.79
77323;BME280;66384;51.052;9.850;2023-08-07T12:25:49;98244.72;;;16.84;72.04
77323;BME280;66384;51.052;9.850;2023-08-07T12:28:20;98238.55;;;16.99;71.50
77323;BME280;66384;51.052;9.850;2023-08-07T12:30:53;98244.27;;;17.01;71.62
77323;BME280;66384;51.052;9.850;2023-08-07T12:33:24;98248.29;;;16.97;70.90
77323;BME280;66384;51.052;9.850;2023-08-07T12:35:57;98256.84;;;16.90;70.70
77323;BME280;66384;51.052;9.850;2023-08-07T12:38:30;98252.71;;;16.84;70.49
77323;BME280;66384;51.052;9.850;2023-08-07T12:41:01;98260.02;;;16.78;70.26
77323;BME280;66384;51.052;9.850;2023-08-07T12:43:34;98259.67;;;16.74;70.35
77323;BME280;66384;51.052;9.850;2023-08-07T12:46:06;98257.77;;;16.74;70.04
77323;BME280;66384;51.052;9.850;2023-08-07T12:48:40;98250.83;;;16.79;70.07
77323;BME280;66384;51.052;9.850;2023-08-07T12:51:11;98246.27;;;16.86;69.14
77323;BME280;66384;51.052;9.850;2023-08-07T12:53:43;98250.55;;;16.96;70.22
77323;BME280;66384;51.052;9.850;2023-08-07T12:56:15;98240.87;;;17.13;70.22
77323;BME280;66384;51.052;9.850;2023-08-07T12:58:47;98243.65;;;17.35;69.10
77323;BME280;66384;51.052;9.850;2023-08-07T13:01:20;98243.98;;;17.57;68.51
77323;BME280;66384;51.052;9.850;2023-08-07T13:03:52;98250.23;;;17.80;68.27
77323;BME280;66384;51.052;9.850;2023-08-07T13:06:24;98258.97;;;17.94;67.57
77323;BME280;66384;51.052;9.850;2023-08-07T13:08:55;98267.84;;;17.94;67.17
77323;BME280;66384;51.052;9.850;2023-08-07T13:11:27;98275.87;;;17.92;66.51
77323;BME280;66384;51.052;9.850;2023-08-07T13:13:59;98277.15;;;17.86;65.38
77323;BME280;66384;51.052;9.850;2023-08-07T13:16:30;98276.89;;;17.72;65.24
77323;BME280;66384;51.052;9.850;2023-08-07T13:19:02;98278.35;;;17.64;64.51
77323;BME280;66384;51.052;9.850;2023-08-07T13:21:35;98278.35;;;17.64;65.16
77323;BME280;66384;51.052;9.850;2023-08-07T13:24:07;98280.23;;;17.68;63.43
77323;BME280;66384;51.052;9.850;2023-08-07T13:26:38;98269.93;;;17.74;63.22